createdAt,value
2023-01-19T00:00:34.283Z,991.3
2023-01-19T00:01:34.208Z,991.3
2023-01-19T00:02:34.271Z,991.4
2023-01-19T00:03:34.221Z,991.4
2023-01-19T00:04:34.232Z,991.4
2023-01-19T00:05:34.247Z,991.4
2023-01-19T00:06:34.453Z,991.4
2023-01-19T00:07:34.267Z,991.4
2023-01-19T00:08:34.283Z,991.4
2023-01-19T00:09:34.298Z,991.4
2023-01-19T00:10:34.316Z,991.4
2023-01-19T00:11:34.325Z,991.4
2023-01-19T00:12:34.322Z,991.4
2023-01-19T00:13:34.335Z,991.3
2023-01-19T00:14:34.341Z,991.4
2023-01-19T00:15:34.370Z,991.3
2023-01-19T00:16:34.548Z,991.3
2023-01-19T00:17:34.376Z,991.4
2023-01-19T00:18:34.415Z,991.3
2023-01-19T00:19:34.399Z,991.3
2023-01-19T00:20:34.423Z,991.2
2023-01-19T00:21:34.419Z,991.2
2023-01-19T00:22:34.443Z,991.3
2023-01-19T00:23:34.443Z,991.2
2023-01-19T00:24:34.564Z,991.3
2023-01-19T00:25:34.467Z,991.3
2023-01-19T00:26:34.488Z,991.2
2023-01-19T00:27:34.489Z,991.3
2023-01-19T00:28:34.504Z,991.2
2023-01-19T00:29:34.516Z,991.2
2023-01-19T00:30:34.523Z,991.2
2023-01-19T00:31:34.582Z,991.2
2023-01-19T00:32:34.553Z,991.2
2023-01-19T00:33:34.563Z,991.1
2023-01-19T00:34:34.578Z,991.1
2023-01-19T00:35:34.598Z,991.1
2023-01-19T00:36:34.599Z,991.2
2023-01-19T00:37:34.601Z,991.1
2023-01-19T00:38:34.626Z,991.1
2023-01-19T00:39:34.635Z,991.1
2023-01-19T00:40:34.642Z,991.2
2023-01-19T00:41:34.640Z,991.1
2023-01-19T00:42:34.663Z,991.1
2023-01-19T00:43:34.675Z,991.1
2023-01-19T00:44:34.671Z,991.2
2023-01-19T00:45:34.831Z,991.2
2023-01-19T00:46:34.695Z,991.2
2023-01-19T00:47:34.719Z,991.2
2023-01-19T00:48:34.716Z,991.2
2023-01-19T00:49:34.720Z,991.2
2023-01-19T00:50:34.751Z,991.2
2023-01-19T00:51:34.935Z,991.2
2023-01-19T00:52:34.770Z,991.3
2023-01-19T00:53:34.786Z,991.2
2023-01-19T00:54:34.777Z,991.2
2023-01-19T00:55:34.783Z,991.2
2023-01-19T00:56:34.798Z,991.1
2023-01-19T00:57:34.827Z,991.2
2023-01-19T00:58:34.855Z,991.2
2023-01-19T00:59:34.848Z,991.1
2023-01-19T01:00:34.852Z,991.2
2023-01-19T01:01:46.501Z,991.2
2023-01-19T01:02:35.248Z,991.2
2023-01-19T01:03:34.886Z,991.1
2023-01-19T01:04:34.900Z,991.1
2023-01-19T01:05:34.910Z,991.1
2023-01-19T01:06:34.932Z,991.2
2023-01-19T01:07:34.938Z,991.2
2023-01-19T01:08:34.943Z,991.2
2023-01-19T01:09:34.955Z,991.2
2023-01-19T01:10:34.958Z,991.3
2023-01-19T01:11:34.987Z,991.2
2023-01-19T01:12:35.055Z,991.4
2023-01-19T01:13:35.033Z,991.2
2023-01-19T01:14:35.004Z,991.2
2023-01-19T01:15:35.050Z,991.3
2023-01-19T01:16:35.144Z,991.4
2023-01-19T01:17:35.066Z,991.3
2023-01-19T01:18:35.057Z,991.3
2023-01-19T01:19:35.065Z,991.3
2023-01-19T01:20:35.087Z,991.3
2023-01-19T01:21:35.097Z,991.3
2023-01-19T01:22:35.111Z,991.4
2023-01-19T01:23:35.137Z,991.4
2023-01-19T01:24:35.136Z,991.4
2023-01-19T01:25:35.141Z,991.3
2023-01-19T01:26:35.153Z,991.4
2023-01-19T01:27:35.167Z,991.4
2023-01-19T01:28:35.179Z,991.4
2023-01-19T01:29:35.195Z,991.4
2023-01-19T01:30:35.211Z,991.3
2023-01-19T01:31:35.315Z,991.4
2023-01-19T01:49:35.881Z,991.4
2023-01-19T01:50:35.440Z,991.3
2023-01-19T01:51:35.469Z,991.3
2023-01-19T01:52:35.471Z,991.4
2023-01-19T01:53:35.489Z,991.4
2023-01-19T01:54:35.499Z,991.4
2023-01-19T01:55:35.494Z,991.4
2023-01-19T01:56:35.517Z,991.4
2023-01-19T01:57:35.549Z,991.4
2023-01-19T01:58:35.523Z,991.3
2023-01-19T01:59:35.531Z,991.3
2023-01-19T02:00:35.541Z,991.3
2023-01-19T02:01:35.875Z,991.3
2023-01-19T02:02:35.640Z,991.3
2023-01-19T02:03:35.588Z,991.2
2023-01-19T02:04:35.590Z,991.3
2023-01-19T02:05:35.594Z,991.2
2023-01-19T02:06:35.604Z,991.2
2023-01-19T02:07:35.625Z,991.2
2023-01-19T02:08:35.614Z,991.2
2023-01-19T02:09:35.638Z,991.2
2023-01-19T02:10:35.647Z,991.2
2023-01-19T02:11:35.657Z,991.3
2023-01-19T02:12:35.648Z,991.2
2023-01-19T02:13:35.690Z,991.3
2023-01-19T02:14:35.675Z,991.2
2023-01-19T02:15:35.751Z,991.2
2023-01-19T02:16:35.736Z,991.1
2023-01-19T02:17:35.698Z,991.2
2023-01-19T02:18:35.721Z,991.2
2023-01-19T02:19:35.716Z,991.2
2023-01-19T02:20:35.748Z,991.2
2023-01-19T02:21:35.744Z,991.1
2023-01-19T02:22:35.777Z,991.2
2023-01-19T02:23:35.781Z,991.1
2023-01-19T02:24:35.801Z,991.1
2023-01-19T02:25:35.805Z,991.1
2023-01-19T02:26:35.808Z,991.2
2023-01-19T02:27:35.819Z,991.2
2023-01-19T02:28:36.030Z,991.1
2023-01-19T02:29:35.861Z,991.2
2023-01-19T02:30:35.948Z,991.2
2023-01-19T02:31:35.860Z,991.1
2023-01-19T02:32:35.867Z,991.2
2023-01-19T02:33:35.878Z,991.0
2023-01-19T02:34:35.881Z,991.0
2023-01-19T02:35:35.892Z,991.1
2023-01-19T02:36:35.901Z,991.0
2023-01-19T02:37:35.900Z,991.1
2023-01-19T02:38:35.923Z,991.2
2023-01-19T02:39:35.916Z,991.1
2023-01-19T02:40:35.930Z,991.1
2023-01-19T02:41:35.948Z,991.1
2023-01-19T02:42:35.971Z,991.0
2023-01-19T02:43:35.966Z,991.1
2023-01-19T02:44:35.982Z,991.0
2023-01-19T02:45:35.994Z,991.1
2023-01-19T02:46:35.999Z,991.1
2023-01-19T02:47:36.015Z,991.1
2023-01-19T02:48:36.057Z,991.1
2023-01-19T02:49:36.038Z,991.1
2023-01-19T02:50:36.071Z,991.1
2023-01-19T02:51:36.069Z,991.1
2023-01-19T02:52:36.078Z,991.1
2023-01-19T02:53:36.097Z,991.1
2023-01-19T02:54:36.101Z,991.1
2023-01-19T02:55:36.113Z,991.0
2023-01-19T02:56:36.171Z,991.1
2023-01-19T02:57:36.170Z,991.1
2023-01-19T02:58:36.170Z,991.1
2023-01-19T02:59:36.170Z,991.1
2023-01-19T03:00:36.175Z,991.0
2023-01-19T03:01:36.457Z,991.1
2023-01-19T03:02:36.290Z,991.1
2023-01-19T03:03:36.195Z,991.0
2023-01-19T03:04:36.220Z,991.1
2023-01-19T03:05:36.224Z,991.0
2023-01-19T03:06:36.225Z,991.0
2023-01-19T03:07:36.238Z,991.0
2023-01-19T03:08:36.259Z,991.0
2023-01-19T03:09:36.265Z,991.0
2023-01-19T03:10:36.281Z,991.0
2023-01-19T03:11:36.419Z,991.1
2023-01-19T03:12:36.292Z,991.1
2023-01-19T03:13:36.311Z,991.1
2023-01-19T03:14:36.326Z,991.0
2023-01-19T03:15:36.490Z,991.0
2023-01-19T03:16:36.480Z,991.1
2023-01-19T03:17:36.361Z,991.1
2023-01-19T03:18:36.381Z,991.1
2023-01-19T03:19:36.448Z,991.0
2023-01-19T03:20:36.400Z,991.1
2023-01-19T03:21:36.405Z,991.1
2023-01-19T03:22:36.416Z,991.0
2023-01-19T03:23:36.429Z,991.0
2023-01-19T03:24:37.921Z,991.1
2023-01-19T03:25:36.463Z,991.0
2023-01-19T03:26:36.471Z,991.0
2023-01-19T03:27:36.504Z,991.0
2023-01-19T03:28:36.509Z,991.0
2023-01-19T03:29:36.522Z,991.0
2023-01-19T03:30:36.621Z,991.0
2023-01-19T03:31:36.543Z,991.1
2023-01-19T03:32:36.579Z,991.0
2023-01-19T03:33:36.642Z,991.1
2023-01-19T03:34:36.583Z,991.1
2023-01-19T03:35:36.605Z,991.2
2023-01-19T03:36:36.635Z,991.1
2023-01-19T03:37:36.617Z,991.1
2023-01-19T03:38:36.656Z,991.1
2023-01-19T03:39:36.642Z,991.1
2023-01-19T03:40:36.668Z,991.0
2023-01-19T03:41:36.662Z,991.0
2023-01-19T03:42:36.673Z,991.1
2023-01-19T03:43:36.686Z,991.0
2023-01-19T03:44:36.704Z,991.1
2023-01-19T03:45:36.701Z,991.0
2023-01-19T03:46:36.718Z,991.1
2023-01-19T03:47:36.770Z,991.1
2023-01-19T03:48:36.763Z,991.1
2023-01-19T03:49:36.768Z,991.1
2023-01-19T03:50:36.767Z,991.1
2023-01-19T03:51:36.800Z,991.1
2023-01-19T03:52:36.810Z,991.1
2023-01-19T03:53:36.823Z,991.1
2023-01-19T03:54:36.880Z,991.2
2023-01-19T03:55:36.854Z,991.2
2023-01-19T03:56:36.863Z,991.2
2023-01-19T03:57:36.866Z,991.2
2023-01-19T03:58:36.880Z,991.2
2023-01-19T03:59:36.894Z,991.2
2023-01-19T04:00:36.926Z,991.2
2023-01-19T04:01:37.182Z,991.2
2023-01-19T04:02:37.004Z,991.3
2023-01-19T04:03:36.955Z,991.3
2023-01-19T04:04:36.964Z,991.2
2023-01-19T04:05:36.966Z,991.2
2023-01-19T04:06:36.985Z,991.2
2023-01-19T04:07:36.997Z,991.2
2023-01-19T04:08:37.044Z,991.3
2023-01-19T04:09:37.019Z,991.2
2023-01-19T04:10:37.062Z,991.2
2023-01-19T04:11:37.054Z,991.2
2023-01-19T04:12:37.076Z,991.2
2023-01-19T04:13:37.267Z,991.2
2023-01-19T04:14:37.133Z,991.2
2023-01-19T04:15:37.264Z,991.3
2023-01-19T04:16:37.121Z,991.2
2023-01-19T04:17:37.134Z,991.2
2023-01-19T04:18:37.148Z,991.2
2023-01-19T04:19:37.170Z,991.2
2023-01-19T04:20:37.342Z,991.2
2023-01-19T04:21:37.195Z,991.2
2023-01-19T04:22:37.213Z,991.2
2023-01-19T04:23:37.245Z,991.1
2023-01-19T04:24:37.251Z,991.0
2023-01-19T04:25:39.089Z,991.0
2023-01-19T04:26:37.269Z,991.1
2023-01-19T04:27:37.287Z,991.1
2023-01-19T04:28:37.468Z,991.1
2023-01-19T04:29:37.316Z,991.2
2023-01-19T04:30:37.309Z,991.2
2023-01-19T04:31:37.532Z,991.2
2023-01-19T04:32:37.343Z,991.2
2023-01-19T04:33:37.356Z,991.1
2023-01-19T04:34:37.353Z,991.2
2023-01-19T04:35:37.356Z,991.1
2023-01-19T04:36:37.373Z,991.0
2023-01-19T04:37:37.390Z,991.1
2023-01-19T04:38:37.408Z,991.2
2023-01-19T04:39:37.432Z,991.2
2023-01-19T04:40:37.424Z,991.2
2023-01-19T04:41:37.451Z,991.1
2023-01-19T04:42:37.462Z,991.2
2023-01-19T04:43:37.474Z,991.2
2023-01-19T04:44:37.499Z,991.2
2023-01-19T04:45:37.504Z,991.2
2023-01-19T04:46:37.598Z,991.2
2023-01-19T04:47:37.531Z,991.2
2023-01-19T04:48:37.531Z,991.2
2023-01-19T04:49:37.551Z,991.2
2023-01-19T04:50:37.563Z,991.2
2023-01-19T04:51:37.577Z,991.2
2023-01-19T04:52:37.577Z,991.2
2023-01-19T04:53:37.606Z,991.2
2023-01-19T04:54:37.684Z,991.1
2023-01-19T04:55:37.618Z,991.2
2023-01-19T04:56:37.632Z,991.2
2023-01-19T04:57:37.654Z,991.2
2023-01-19T04:58:37.667Z,991.2
2023-01-19T04:59:37.685Z,991.2
2023-01-19T05:00:37.702Z,991.2
2023-01-19T05:01:37.749Z,991.2
2023-01-19T05:02:37.884Z,991.3
2023-01-19T05:03:37.746Z,991.3
2023-01-19T05:04:37.739Z,991.3
2023-01-19T05:05:37.824Z,991.3
2023-01-19T05:06:37.770Z,991.4
2023-01-19T05:07:37.781Z,991.3
2023-01-19T05:08:37.792Z,991.3
2023-01-19T05:09:37.793Z,991.3
2023-01-19T05:10:37.800Z,991.4
2023-01-19T05:11:37.801Z,991.4
2023-01-19T05:12:37.815Z,991.4
2023-01-19T05:13:37.827Z,991.5
2023-01-19T05:14:37.841Z,991.4
2023-01-19T05:15:37.858Z,991.4
2023-01-19T05:16:37.871Z,991.4
2023-01-19T05:17:37.891Z,991.3
2023-01-19T05:18:37.897Z,991.4
2023-01-19T05:19:37.925Z,991.4
2023-01-19T05:20:37.933Z,991.3
2023-01-19T05:21:37.952Z,991.4
2023-01-19T05:22:37.949Z,991.4
2023-01-19T05:23:37.969Z,991.4
2023-01-19T05:24:37.964Z,991.4
2023-01-19T05:25:37.995Z,991.5
2023-01-19T05:26:38.004Z,991.4
2023-01-19T05:27:38.022Z,991.4
2023-01-19T05:28:38.050Z,991.4
2023-01-19T05:29:38.018Z,991.4
2023-01-19T05:30:38.128Z,991.4
2023-01-19T05:31:38.086Z,991.5
2023-01-19T05:32:38.072Z,991.5
2023-01-19T05:33:38.061Z,991.5
2023-01-19T05:34:38.081Z,991.4
2023-01-19T05:35:38.099Z,991.5
2023-01-19T05:36:38.121Z,991.4
2023-01-19T05:37:38.108Z,991.4
2023-01-19T05:38:38.122Z,991.4
2023-01-19T05:39:38.159Z,991.4
2023-01-19T05:40:38.150Z,991.4
2023-01-19T05:41:38.155Z,991.5
2023-01-19T05:42:38.182Z,991.4
2023-01-19T05:43:38.391Z,991.5
2023-01-19T05:44:38.204Z,991.5
2023-01-19T05:45:38.213Z,991.4
2023-01-19T05:46:38.301Z,991.5
2023-01-19T05:47:38.237Z,991.6
2023-01-19T05:48:38.241Z,991.5
2023-01-19T05:49:38.250Z,991.5
2023-01-19T05:50:38.271Z,991.5
2023-01-19T05:51:38.270Z,991.6
2023-01-19T05:52:38.293Z,991.5
2023-01-19T05:53:38.302Z,991.4
2023-01-19T05:54:38.412Z,991.5
2023-01-19T05:55:38.334Z,991.5
2023-01-19T05:56:38.321Z,991.5
2023-01-19T05:57:38.387Z,991.4
2023-01-19T05:58:38.356Z,991.5
2023-01-19T05:59:38.366Z,991.4
2023-01-19T06:00:38.384Z,991.4
2023-01-19T06:01:40.446Z,991.5
2023-01-19T06:02:38.437Z,991.5
2023-01-19T06:03:38.579Z,991.5
2023-01-19T06:04:38.631Z,991.4
2023-01-19T06:05:38.458Z,991.4
2023-01-19T06:06:38.457Z,991.4
2023-01-19T06:07:38.457Z,991.4
2023-01-19T06:08:38.478Z,991.3
2023-01-19T06:09:38.493Z,991.5
2023-01-19T06:10:38.503Z,991.4
2023-01-19T06:11:38.507Z,991.4
2023-01-19T06:12:38.525Z,991.5
2023-01-19T06:13:42.171Z,991.4
2023-01-19T06:14:38.551Z,991.5
2023-01-19T06:15:38.592Z,991.5
2023-01-19T06:16:38.795Z,991.5
2023-01-19T06:17:38.601Z,991.5
2023-01-19T06:18:38.774Z,991.6
2023-01-19T06:19:38.629Z,991.5
2023-01-19T06:20:38.640Z,991.5
2023-01-19T06:21:38.647Z,991.6
2023-01-19T06:22:38.652Z,991.5
2023-01-19T06:23:38.665Z,991.6
2023-01-19T06:24:38.684Z,991.5
2023-01-19T06:25:38.697Z,991.6
2023-01-19T06:26:38.714Z,991.5
2023-01-19T06:27:38.722Z,991.6
2023-01-19T06:28:38.752Z,991.5
2023-01-19T06:29:38.763Z,991.5
2023-01-19T06:30:38.831Z,991.6
2023-01-19T06:31:38.828Z,991.5
2023-01-19T06:32:38.785Z,991.6
2023-01-19T06:33:38.804Z,991.6
2023-01-19T06:34:38.813Z,991.7
2023-01-19T06:35:38.855Z,991.6
2023-01-19T06:36:38.857Z,991.6
2023-01-19T06:37:38.955Z,991.7
2023-01-19T06:38:38.859Z,991.6
2023-01-19T06:39:38.872Z,991.6
2023-01-19T06:40:38.885Z,991.6
2023-01-19T06:41:38.903Z,991.7
2023-01-19T06:42:38.911Z,991.8
2023-01-19T06:43:38.914Z,991.7
2023-01-19T06:44:38.924Z,991.7
2023-01-19T06:45:39.094Z,991.8
2023-01-19T06:46:39.005Z,991.7
2023-01-19T06:47:38.972Z,991.7
2023-01-19T06:48:39.006Z,991.8
2023-01-19T06:49:39.038Z,991.8
2023-01-19T06:50:39.025Z,991.7
2023-01-19T06:51:39.060Z,991.8
2023-01-19T06:52:39.038Z,991.9
2023-01-19T06:53:39.061Z,991.9
2023-01-19T06:54:39.064Z,991.8
2023-01-19T06:55:39.109Z,991.9
2023-01-19T06:56:39.100Z,991.9
2023-01-19T06:57:39.142Z,991.9
2023-01-19T06:58:39.152Z,991.9
2023-01-19T06:59:39.131Z,992.0
2023-01-19T07:00:39.152Z,992.0
2023-01-19T07:01:39.378Z,992.0
2023-01-19T07:02:39.443Z,992.0
2023-01-19T07:03:39.219Z,992.1
2023-01-19T07:04:39.218Z,992.0
2023-01-19T07:05:39.225Z,992.1
2023-01-19T07:06:39.244Z,992.0
2023-01-19T07:07:39.253Z,992.0
2023-01-19T07:08:39.264Z,992.1
2023-01-19T07:09:39.266Z,992.1
2023-01-19T07:11:21.960Z,992.1
2023-01-19T07:11:39.303Z,992.2
2023-01-19T07:12:39.470Z,992.1
2023-01-19T07:13:39.338Z,992.2
2023-01-19T07:14:39.371Z,992.3
2023-01-19T07:15:39.421Z,992.3
2023-01-19T07:16:39.424Z,992.3
2023-01-19T07:17:39.395Z,992.4
2023-01-19T07:18:39.397Z,992.2
2023-01-19T07:19:39.412Z,992.3
2023-01-19T07:20:39.415Z,992.3
2023-01-19T07:21:39.419Z,992.3
2023-01-19T07:22:39.414Z,992.3
2023-01-19T07:23:39.437Z,992.4
2023-01-19T07:24:39.428Z,992.4
2023-01-19T07:25:39.457Z,992.3
2023-01-19T07:26:39.476Z,992.4
2023-01-19T07:27:39.592Z,992.4
2023-01-19T07:28:39.536Z,992.4
2023-01-19T07:29:39.498Z,992.5
2023-01-19T07:30:39.724Z,992.4
2023-01-19T07:31:39.728Z,992.5
2023-01-19T07:32:39.501Z,992.4
2023-01-19T07:33:39.501Z,992.5
2023-01-19T07:34:39.517Z,992.5
2023-01-19T07:35:39.537Z,992.5
2023-01-19T07:36:39.526Z,992.6
2023-01-19T07:37:39.533Z,992.5
2023-01-19T07:38:39.547Z,992.5
2023-01-19T07:39:39.543Z,992.6
2023-01-19T07:40:39.545Z,992.7
2023-01-19T07:41:39.549Z,992.6
2023-01-19T07:42:39.576Z,992.6
2023-01-19T07:43:39.576Z,992.7
2023-01-19T07:44:39.587Z,992.8
2023-01-19T07:45:39.722Z,992.7
2023-01-19T07:46:39.605Z,992.7
2023-01-19T07:47:39.591Z,992.7
2023-01-19T07:48:39.625Z,992.8
2023-01-19T07:49:39.617Z,992.7
2023-01-19T07:50:39.640Z,992.7
2023-01-19T07:51:39.628Z,992.7
2023-01-19T07:52:39.639Z,992.7
2023-01-19T07:53:39.629Z,992.7
2023-01-19T07:54:39.636Z,992.7
2023-01-19T07:55:39.651Z,992.7
2023-01-19T07:56:39.639Z,992.7
2023-01-19T07:57:39.659Z,992.8
2023-01-19T07:58:39.669Z,992.7
2023-01-19T07:59:39.662Z,992.7
2023-01-19T08:00:39.706Z,992.8
2023-01-19T08:01:39.914Z,992.9
2023-01-19T08:02:39.683Z,992.8
2023-01-19T08:03:39.695Z,992.8
2023-01-19T08:04:39.782Z,992.8
2023-01-19T08:05:39.706Z,993.0
2023-01-19T08:06:39.708Z,992.9
2023-01-19T08:07:39.717Z,993.0
2023-01-19T08:08:39.722Z,993.0
2023-01-19T08:09:39.729Z,993.0
2023-01-19T08:10:39.740Z,993.0
2023-01-19T08:11:39.737Z,993.0
2023-01-19T08:12:39.738Z,993.0
2023-01-19T08:13:39.760Z,993.0
2023-01-19T08:14:39.754Z,993.0
2023-01-19T08:15:39.864Z,993.0
2023-01-19T08:16:39.771Z,993.0
2023-01-19T08:17:39.772Z,993.0
2023-01-19T08:18:39.795Z,993.0
2023-01-19T08:19:41.725Z,993.0
2023-01-19T08:20:39.804Z,993.1
2023-01-19T08:21:39.800Z,993.1
2023-01-19T08:22:39.799Z,993.0
2023-01-19T08:23:39.990Z,993.0
2023-01-19T08:24:39.811Z,993.0
2023-01-19T08:25:39.848Z,993.0
2023-01-19T08:26:39.870Z,993.0
2023-01-19T08:27:39.862Z,993.0
2023-01-19T08:28:39.829Z,993.0
2023-01-19T08:29:39.846Z,993.0
2023-01-19T08:30:40.347Z,993.0
2023-01-19T08:31:40.170Z,993.0
2023-01-19T08:32:39.880Z,993.0
2023-01-19T08:33:39.875Z,993.1
2023-01-19T08:34:39.900Z,993.0
2023-01-19T08:35:39.902Z,993.1
2023-01-19T08:36:39.905Z,993.0
2023-01-19T08:37:39.905Z,993.1
2023-01-19T08:38:39.918Z,993.1
2023-01-19T08:39:39.921Z,993.1
2023-01-19T08:40:39.939Z,993.2
2023-01-19T08:41:39.944Z,993.1
2023-01-19T08:42:39.941Z,993.2
2023-01-19T08:43:39.959Z,993.1
2023-01-19T08:44:57.961Z,993.2
2023-01-19T08:45:39.974Z,993.1
2023-01-19T08:46:40.122Z,993.2
2023-01-19T08:47:40.084Z,993.2
2023-01-19T08:48:40.248Z,993.2
2023-01-19T08:49:40.033Z,993.2
2023-01-19T08:50:40.000Z,993.2
2023-01-19T08:51:39.994Z,993.2
2023-01-19T08:52:40.001Z,993.2
2023-01-19T08:53:40.005Z,993.3
2023-01-19T08:54:40.036Z,993.3
2023-01-19T08:55:40.024Z,993.3
2023-01-19T08:56:40.031Z,993.4
2023-01-19T08:57:40.054Z,993.3
2023-01-19T08:58:40.045Z,993.4
2023-01-19T08:59:40.052Z,993.3
2023-01-19T09:00:40.057Z,993.4
2023-01-19T09:01:40.459Z,993.4
2023-01-19T09:02:40.212Z,993.4
2023-01-19T09:03:40.072Z,993.4
2023-01-19T09:04:40.091Z,993.4
2023-01-19T09:05:40.157Z,993.4
2023-01-19T09:06:40.096Z,993.4
2023-01-19T09:07:40.102Z,993.4
2023-01-19T09:08:40.104Z,993.4
2023-01-19T09:09:40.117Z,993.4
2023-01-19T09:10:40.117Z,993.5
2023-01-19T09:11:40.121Z,993.4
2023-01-19T09:12:40.135Z,993.4
2023-01-19T09:13:40.190Z,993.4
2023-01-19T09:14:40.166Z,993.5
2023-01-19T09:15:40.260Z,993.5
2023-01-19T09:16:40.166Z,993.4
2023-01-19T09:17:40.166Z,993.5
2023-01-19T09:18:40.170Z,993.4
2023-01-19T09:19:40.194Z,993.4
2023-01-19T09:20:40.189Z,993.5
2023-01-19T09:21:40.202Z,993.5
2023-01-19T09:22:40.233Z,993.5
2023-01-19T09:23:40.199Z,993.5
2023-01-19T09:24:40.209Z,993.5
2023-01-19T09:25:40.213Z,993.5
2023-01-19T09:26:40.221Z,993.5
2023-01-19T09:27:40.226Z,993.5
2023-01-19T09:28:40.246Z,993.6
2023-01-19T09:29:40.240Z,993.6
2023-01-19T09:30:40.311Z,993.5
2023-01-19T09:31:40.403Z,993.6
2023-01-19T09:32:40.260Z,993.6
2023-01-19T09:33:40.260Z,993.5
2023-01-19T09:34:40.279Z,993.7
2023-01-19T09:35:40.298Z,993.7
2023-01-19T09:36:40.285Z,993.6
2023-01-19T09:37:40.287Z,993.6
2023-01-19T09:38:40.324Z,993.7
2023-01-19T09:39:40.366Z,993.7
2023-01-19T09:40:42.324Z,993.7
2023-01-19T09:41:40.327Z,993.7
2023-01-19T09:42:40.336Z,993.7
2023-01-19T09:43:40.336Z,993.8
2023-01-19T09:44:40.331Z,993.8
2023-01-19T09:45:40.342Z,993.7
2023-01-19T09:46:40.495Z,993.8
2023-01-19T09:47:40.353Z,993.8
2023-01-19T09:48:40.366Z,993.8
2023-01-19T09:49:40.363Z,993.9
2023-01-19T09:50:40.370Z,993.9
2023-01-19T09:51:40.378Z,993.8
2023-01-19T09:52:40.377Z,993.9
2023-01-19T09:53:40.389Z,993.9
2023-01-19T09:54:40.393Z,993.9
2023-01-19T09:55:40.409Z,993.9
2023-01-19T09:56:40.408Z,994.0
2023-01-19T09:57:40.413Z,994.0
2023-01-19T09:58:40.422Z,994.0
2023-01-19T09:59:40.429Z,994.0
2023-01-19T10:00:40.602Z,994.0
2023-01-19T10:01:40.630Z,994.0
2023-01-19T10:02:40.831Z,994.0
2023-01-19T10:03:40.447Z,993.9
2023-01-19T10:04:40.461Z,994.0
2023-01-19T10:05:40.469Z,994.0
2023-01-19T10:06:40.468Z,994.0
2023-01-19T10:07:40.469Z,994.0
2023-01-19T10:08:40.500Z,994.1
2023-01-19T10:09:40.488Z,994.1
2023-01-19T10:10:40.499Z,994.0
2023-01-19T10:11:52.827Z,994.1
2023-01-19T10:12:40.583Z,994.1
2023-01-19T10:13:40.522Z,994.1
2023-01-19T10:14:40.530Z,994.2
2023-01-19T10:15:40.519Z,994.1
2023-01-19T10:16:40.543Z,994.1
2023-01-19T10:17:40.530Z,994.2
2023-01-19T10:18:40.533Z,994.1
2023-01-19T10:19:40.556Z,994.0
2023-01-19T10:20:40.552Z,994.1
2023-01-19T10:21:40.549Z,994.1
2023-01-19T10:22:40.568Z,994.1
2023-01-19T10:23:40.576Z,994.0
2023-01-19T10:24:40.595Z,994.1
2023-01-19T10:25:40.649Z,994.1
2023-01-19T10:26:40.619Z,994.2
2023-01-19T10:27:40.594Z,994.2
2023-01-19T10:28:40.618Z,994.2
2023-01-19T10:29:40.624Z,994.1
2023-01-19T10:30:40.790Z,994.1
2023-01-19T10:31:40.896Z,994.1
2023-01-19T10:32:40.624Z,994.1
2023-01-19T10:33:40.645Z,994.1
2023-01-19T10:34:40.658Z,994.1
2023-01-19T10:35:40.638Z,994.2
2023-01-19T10:36:40.693Z,994.2
2023-01-19T10:37:40.714Z,994.1
2023-01-19T10:38:40.713Z,994.2
2023-01-19T10:39:40.727Z,994.2
2023-01-19T10:40:40.701Z,994.2
2023-01-19T10:41:40.739Z,994.2
2023-01-19T10:42:40.759Z,994.1
2023-01-19T10:43:40.755Z,994.2
2023-01-19T10:44:40.787Z,994.3
2023-01-19T10:45:40.852Z,994.2
2023-01-19T10:46:40.726Z,994.2
2023-01-19T10:47:40.775Z,994.2
2023-01-19T10:48:40.759Z,994.2
2023-01-19T10:49:40.817Z,994.1
2023-01-19T10:50:40.760Z,994.3
2023-01-19T10:51:40.759Z,994.3
2023-01-19T10:52:40.829Z,994.2
2023-01-19T10:53:40.775Z,994.2
2023-01-19T10:54:40.806Z,994.2
2023-01-19T10:55:40.868Z,994.2
2023-01-19T10:56:40.816Z,994.3
2023-01-19T10:57:40.939Z,994.2
2023-01-19T10:58:40.855Z,994.3
2023-01-19T10:59:40.842Z,994.3
2023-01-19T11:00:41.030Z,994.3
2023-01-19T11:01:41.143Z,994.3
2023-01-19T11:02:40.921Z,994.4
2023-01-19T11:03:40.910Z,994.5
2023-01-19T11:04:40.921Z,994.4
2023-01-19T11:05:40.859Z,994.4
2023-01-19T11:06:40.884Z,994.3
2023-01-19T11:07:40.900Z,994.4
2023-01-19T11:08:40.896Z,994.5
2023-01-19T11:09:40.893Z,994.4
2023-01-19T11:10:40.907Z,994.4
2023-01-19T11:11:40.910Z,994.4
2023-01-19T11:12:40.909Z,994.5
2023-01-19T11:13:40.939Z,994.5
2023-01-19T11:14:40.937Z,994.5
2023-01-19T11:15:40.942Z,994.4
2023-01-19T11:16:41.014Z,994.3
2023-01-19T11:17:40.946Z,994.4
2023-01-19T11:18:40.982Z,994.4
2023-01-19T11:19:40.986Z,994.3
2023-01-19T11:20:40.971Z,994.4
2023-01-19T11:21:40.992Z,994.4
2023-01-19T11:22:41.004Z,994.4
2023-01-19T11:23:41.014Z,994.3
2023-01-19T11:24:41.012Z,994.4
2023-01-19T11:25:41.021Z,994.4
2023-01-19T11:26:41.030Z,994.3
2023-01-19T11:27:41.033Z,994.4
2023-01-19T11:28:45.074Z,994.4
2023-01-19T11:29:41.092Z,994.4
2023-01-19T11:30:41.171Z,994.4
2023-01-19T11:31:41.201Z,994.3
2023-01-19T11:32:41.069Z,994.4
2023-01-19T11:33:41.094Z,994.4
2023-01-19T11:34:41.085Z,994.4
2023-01-19T11:35:41.087Z,994.4
2023-01-19T11:36:41.102Z,994.4
2023-01-19T11:37:41.097Z,994.5
2023-01-19T11:38:41.175Z,994.4
2023-01-19T11:39:41.114Z,994.5
2023-01-19T11:40:41.125Z,994.5
2023-01-19T11:41:41.127Z,994.5
2023-01-19T11:42:41.125Z,994.5
2023-01-19T11:43:49.699Z,994.5
2023-01-19T11:44:41.153Z,994.4
2023-01-19T11:45:41.244Z,994.4
2023-01-19T11:46:41.161Z,994.5
2023-01-19T11:47:41.174Z,994.4
2023-01-19T11:48:41.187Z,994.6
2023-01-19T11:49:41.170Z,994.5
2023-01-19T11:50:41.192Z,994.5
2023-01-19T11:51:41.294Z,994.5
2023-01-19T11:52:43.285Z,994.5
2023-01-19T11:53:41.205Z,994.5
2023-01-19T11:54:41.224Z,994.6
2023-01-19T11:55:41.223Z,994.5
2023-01-19T11:56:41.222Z,994.5
2023-01-19T11:57:41.274Z,994.4
2023-01-19T11:58:41.402Z,994.4
2023-01-19T11:59:41.266Z,994.5
2023-01-19T12:00:41.272Z,994.5
2023-01-19T12:01:41.272Z,994.5
2023-01-19T12:02:41.270Z,994.5
2023-01-19T12:03:41.383Z,994.6
2023-01-19T12:04:41.293Z,994.6
2023-01-19T12:05:41.300Z,994.5
2023-01-19T12:06:41.302Z,994.6
2023-01-19T12:07:41.313Z,994.5
2023-01-19T12:08:41.323Z,994.6
2023-01-19T12:09:41.332Z,994.6
2023-01-19T12:10:41.342Z,994.6
2023-01-19T12:11:41.346Z,994.5
2023-01-19T12:12:41.351Z,994.6
2023-01-19T12:13:41.350Z,994.6
2023-01-19T12:14:41.354Z,994.6
2023-01-19T12:15:41.373Z,994.6
2023-01-19T12:16:41.502Z,994.6
2023-01-19T12:17:41.394Z,994.6
2023-01-19T12:18:41.417Z,994.6
2023-01-19T12:19:41.404Z,994.6
2023-01-19T12:20:41.399Z,994.6
2023-01-19T12:21:41.393Z,994.6
2023-01-19T12:22:41.402Z,994.6
2023-01-19T12:23:41.419Z,994.6
2023-01-19T12:24:42.426Z,994.7
2023-01-19T12:25:41.426Z,994.7
2023-01-19T12:26:41.437Z,994.7
2023-01-19T12:27:41.463Z,994.6
2023-01-19T12:28:41.451Z,994.7
2023-01-19T12:29:42.080Z,994.7
2023-01-19T12:30:41.725Z,994.7
2023-01-19T12:31:41.827Z,994.7
2023-01-19T12:32:41.514Z,994.7
2023-01-19T12:33:41.564Z,994.7
2023-01-19T12:34:41.561Z,994.7
2023-01-19T12:35:41.490Z,994.7
2023-01-19T12:36:41.500Z,994.8
2023-01-19T12:37:41.531Z,994.7
2023-01-19T12:38:41.513Z,994.7
2023-01-19T12:39:41.522Z,994.8
2023-01-19T12:40:41.542Z,994.7
2023-01-19T12:41:41.559Z,994.7
2023-01-19T12:42:41.540Z,994.7
2023-01-19T12:43:41.567Z,994.7
2023-01-19T12:44:41.576Z,994.7
2023-01-19T12:45:41.588Z,994.7
2023-01-19T12:46:41.579Z,994.7
2023-01-19T12:47:41.588Z,994.8
2023-01-19T12:48:41.594Z,994.7
2023-01-19T12:49:41.628Z,994.8
2023-01-19T12:50:41.604Z,994.8
2023-01-19T12:51:41.618Z,994.8
2023-01-19T12:52:41.665Z,994.7
2023-01-19T12:53:41.633Z,994.8
2023-01-19T12:54:41.636Z,994.8
2023-01-19T12:55:41.659Z,994.8
2023-01-19T12:56:41.656Z,994.8
2023-01-19T12:57:41.687Z,994.9
2023-01-19T12:58:41.674Z,994.9
2023-01-19T12:59:41.679Z,994.9
2023-01-19T13:00:41.691Z,994.8
2023-01-19T13:01:41.879Z,994.8
2023-01-19T13:02:41.807Z,994.9
2023-01-19T13:03:41.713Z,994.9
2023-01-19T13:04:41.737Z,995.0
2023-01-19T13:05:41.736Z,995.0
2023-01-19T13:06:41.739Z,995.0
2023-01-19T13:07:41.752Z,994.9
2023-01-19T13:08:41.754Z,995.0
2023-01-19T13:09:41.759Z,995.0